Time;durP1;ratioP1;P1;durP2;ratioP2;P2;SDS_P1;SDS_P2;PMS_P1;PMS_P2;Temp;Humidity;BMP_temperature;BMP_pressure;BME280_temperature;BME280_humidity;BME280_pressure;Samples;Min_cycle;Max_cycle;Signal;HPM_P1;HPM_P2
2022/04/14 00:02:08;;;;;;;11.73;5.00;;;;;;;14.63;70.61;100638.88;5066053;28;20567;-77
2022/04/14 00:04:35;;;;;;;11.83;4.33;;;;;;;14.73;70.61;100655.56;5065076;28;20131;-76
2022/04/14 00:07:02;;;;;;;16.13;5.90;;;;;;;14.72;70.44;100644.66;5052243;28;20045;-81
2022/04/14 00:09:29;;;;;;;14.47;5.90;;;;;;;14.76;70.44;100654.13;5052178;28;20487;-78
2022/04/14 00:11:56;;;;;;;7.30;4.07;;;;;;;14.62;70.49;100645.66;5071279;28;20559;-78
2022/04/14 00:14:23;;;;;;;13.20;5.47;;;;;;;14.69;70.41;100648.91;5085991;28;20406;-78
2022/04/14 00:16:50;;;;;;;10.50;5.07;;;;;;;14.29;70.28;100589.38;5073560;28;20113;-76
2022/04/14 00:19:17;;;;;;;13.23;5.10;;;;;;;14.46;70.32;100630.97;5071209;28;20052;-76
2022/04/14 00:21:44;;;;;;;8.80;4.90;;;;;;;14.65;70.55;100659.94;5060526;28;20443;-77
2022/04/14 00:24:11;;;;;;;12.73;4.87;;;;;;;14.49;70.58;100633.16;5064023;28;20081;-77
2022/04/14 00:26:38;;;;;;;14.63;6.97;;;;;;;14.60;70.39;100651.59;5071180;28;20079;-79
2022/04/14 00:29:05;;;;;;;18.20;6.47;;;;;;;14.60;70.63;100656.38;5063240;28;20423;-78
2022/04/14 00:31:32;;;;;;;19.75;5.60;;;;;;;14.55;70.60;100648.00;5064087;28;20156;-78
2022/04/14 00:33:58;;;;;;;9.03;4.83;;;;;;;14.52;70.40;100651.44;5059582;28;20111;-79
2022/04/14 00:36:25;;;;;;;14.87;4.80;;;;;;;14.56;70.54;100658.94;5069358;28;20135;-78
2022/04/14 00:38:52;;;;;;;11.00;5.50;;;;;;;14.55;70.59;100656.44;5067773;28;20211;-79
2022/04/14 00:41:19;;;;;;;12.07;6.47;;;;;;;14.50;70.64;100650.88;5068585;28;20084;-78
2022/04/14 00:43:52;;;;;;;15.13;5.37;;;;;;;14.56;70.60;100655.28;5076987;28;20087;-78
2022/04/14 00:46:20;;;;;;;13.13;5.47;;;;;;;14.56;70.74;100652.47;5074184;28;20072;-77
2022/04/14 00:48:48;;;;;;;21.50;9.87;;;;;;;14.52;70.72;100646.63;5074366;28;20484;-76
2022/04/14 00:51:15;;;;;;;20.33;8.63;;;;;;;14.43;70.50;100649.28;5077564;28;20563;-78
2022/04/14 00:53:42;;;;;;;18.73;7.73;;;;;;;14.48;70.72;100661.59;5072980;28;20095;-77
2022/04/14 00:56:09;;;;;;;20.50;6.57;;;;;;;14.38;70.66;100648.50;5070958;28;20127;-78
2022/04/14 00:58:36;;;;;;;16.93;5.73;;;;;;;14.34;70.51;100634.25;5070820;28;20258;-78
2022/04/14 01:01:05;;;;;;;18.87;6.43;;;;;;;14.35;70.66;100638.72;5066315;28;20091;-87
2022/04/14 01:03:33;;;;;;;17.13;5.73;;;;;;;14.43;70.70;100645.66;5076149;28;20044;-88
2022/04/14 01:06:02;;;;;;;10.90;5.23;;;;;;;14.30;70.75;100630.38;5080933;28;20143;-78
2022/04/14 01:08:32;;;;;;;17.20;6.00;;;;;;;14.26;70.83;100632.13;5074838;28;20098;-79
2022/04/14 01:10:59;;;;;;;14.97;5.10;;;;;;;14.42;71.06;100656.03;5074145;28;20048;-78
2022/04/14 01:13:26;;;;;;;22.30;6.17;;;;;;;14.39;70.83;100653.00;5074036;28;20178;-76
2022/04/14 01:15:58;;;;;;;10.23;4.83;;;;;;;14.12;71.09;100634.00;5071554;28;20470;-76
2022/04/14 01:18:26;;;;;;;11.50;4.30;;;;;;;13.99;71.83;100624.38;5074711;28;20083;-76
2022/04/14 01:20:53;;;;;;;15.43;5.45;;;;;;;14.04;72.08;100648.72;5073138;28;20076;-76
2022/04/14 01:23:40;;;;;;;13.93;4.97;;;;;;;14.08;71.95;100641.38;5073443;28;20048;-76
2022/04/14 01:26:08;;;;;;;12.97;5.10;;;;;;;13.88;71.98;100606.84;5054308;28;20123;-76
2022/04/14 01:28:35;;;;;;;11.67;4.97;;;;;;;13.93;72.28;100632.00;5072365;28;20083;-75
2022/04/14 01:31:02;;;;;;;11.23;4.63;;;;;;;13.90;72.39;100632.63;5065189;28;20132;-78
2022/04/14 01:33:29;;;;;;;14.17;4.70;;;;;;;13.83;72.53;100620.09;5074982;28;20135;-77
2022/04/14 01:35:56;;;;;;;15.60;5.20;;;;;;;13.61;72.17;100578.56;5074349;28;20543;-81
2022/04/14 01:38:22;;;;;;;10.30;4.50;;;;;;;14.03;71.89;100628.25;5065022;28;20522;-81
2022/04/14 01:40:49;;;;;;;11.37;5.13;;;;;;;14.00;71.92;100620.41;5061465;28;20080;-76
2022/04/14 01:43:17;;;;;;;10.77;6.07;;;;;;;13.67;72.18;100578.19;5070721;28;20080;-74
2022/04/14 01:45:50;;;;;;;11.37;5.60;;;;;;;13.93;72.48;100626.41;5068670;28;20091;-77
2022/04/14 01:48:18;;;;;;;15.77;5.27;;;;;;;14.01;72.19;100621.25;5070116;28;20049;-78
2022/04/14 01:50:45;;;;;;;20.83;6.17;;;;;;;13.93;72.10;100601.13;5068605;28;20127;-80
2022/04/14 01:53:12;;;;;;;10.30;4.87;;;;;;;13.77;71.90;100582.81;5072652;28;20079;-81
2022/04/14 01:55:38;;;;;;;11.20;5.93;;;;;;;13.86;72.06;100597.88;5072844;28;20167;-82
2022/04/14 01:58:05;;;;;;;14.60;6.03;;;;;;;13.88;71.90;100590.00;5073524;28;20080;-81
2022/04/14 02:00:32;;;;;;;14.60;5.33;;;;;;;13.92;72.04;100596.66;5059429;28;20132;-80
2022/04/14 02:02:59;;;;;;;14.43;6.07;;;;;;;14.05;72.07;100616.69;5053274;28;20159;-81
2022/04/14 02:05:26;;;;;;;10.63;5.83;;;;;;;14.13;71.69;100618.84;5068734;28;20060;-81
2022/04/14 02:07:53;;;;;;;10.67;5.73;;;;;;;14.03;71.74;100597.34;5070769;28;20128;-81
2022/04/14 02:10:20;;;;;;;13.77;6.03;;;;;;;14.04;72.19;100598.19;5076155;28;20097;-84
2022/04/14 02:12:47;;;;;;;12.77;6.07;;;;;;;14.13;72.09;100618.84;5077257;28;20465;-83
2022/04/14 02:15:14;;;;;;;13.77;6.87;;;;;;;14.07;71.94;100600.38;5070059;28;20055;-83
2022/04/14 02:17:40;;;;;;;19.80;7.07;;;;;;;13.95;72.04;100584.84;5079192;28;20051;-82
2022/04/14 02:20:08;;;;;;;14.70;7.60;;;;;;;14.14;71.88;100614.88;5063240;28;20458;-83
2022/04/14 02:22:41;;;;;;;13.17;7.40;;;;;;;14.11;71.98;100615.50;5053833;28;20083;-83
2022/04/14 02:25:09;;;;;;;13.67;7.07;;;;;;;14.19;71.87;100628.88;5072620;28;20113;-82
2022/04/14 02:27:36;;;;;;;12.97;7.77;;;;;;;13.84;71.60;100576.84;5060082;28;20128;-80
2022/04/14 02:30:04;;;;;;;12.20;7.53;;;;;;;14.14;71.73;100621.31;5070233;28;20090;-80
2022/04/14 02:32:31;;;;;;;18.17;7.10;;;;;;;14.11;71.82;100618.28;5051849;28;20140;-80
2022/04/14 02:34:58;;;;;;;12.67;7.03;;;;;;;13.93;71.81;100598.31;5070973;28;20131;-81
2022/04/14 02:37:25;;;;;;;12.30;5.43;;;;;;;14.10;71.78;100625.06;5068697;28;20076;-80
2022/04/14 02:39:52;;;;;;;13.37;7.27;;;;;;;14.02;71.98;100626.56;5069477;28;20079;-80
2022/04/14 02:42:18;;;;;;;14.33;7.33;;;;;;;13.87;72.10;100621.16;5074212;28;20143;-81
2022/04/14 02:44:45;;;;;;;17.03;7.77;;;;;;;13.80;72.30;100626.31;5064346;28;20128;-81
2022/04/14 02:47:12;;;;;;;18.87;7.87;;;;;;;13.81;72.28;100616.72;5072339;28;20084;-81
2022/04/14 02:49:39;;;;;;;16.43;7.63;;;;;;;13.80;72.44;100627.13;5069556;28;20087;-81
2022/04/14 02:52:06;;;;;;;16.43;7.00;;;;;;;13.82;72.51;100635.28;5071403;28;20072;-79
2022/04/14 02:54:39;;;;;;;12.57;5.93;;;;;;;13.55;72.71;100619.03;5069802;28;20152;-78
2022/04/14 02:57:07;;;;;;;12.23;6.17;;;;;;;13.59;72.93;100639.75;5048916;28;20060;-77
2022/04/14 02:59:38;;;;;;;10.90;6.07;;;;;;;13.51;72.97;100628.06;5068661;28;20048;-77
2022/04/14 03:02:05;;;;;;;19.37;7.37;;;;;;;13.27;73.32;100613.19;5056230;28;20530;-78
2022/04/14 03:04:32;;;;;;;11.20;6.97;;;;;;;13.42;73.42;100629.00;5063970;28;20048;-78
2022/04/14 03:06:59;;;;;;;15.57;5.40;;;;;;;13.27;73.40;100630.00;5065712;28;20064;-79
2022/04/14 03:09:26;;;;;;;14.63;6.80;;;;;;;13.21;73.49;100619.94;5083009;28;20127;-80
2022/04/14 03:11:59;;;;;;;13.03;6.67;;;;;;;13.24;73.78;100631.44;5069396;28;20087;-80
2022/04/14 03:14:26;;;;;;;12.43;5.33;;;;;;;12.96;73.79;100587.41;5067948;28;20079;-80
2022/04/14 03:16:53;;;;;;;10.90;5.57;;;;;;;13.09;74.12;100634.34;5075056;28;20130;-79
2022/04/14 03:19:19;;;;;;;11.23;4.80;;;;;;;13.14;74.17;100630.69;5072504;28;20072;-80
2022/04/14 03:21:47;;;;;;;5.30;2.93;;;;;;;12.97;74.24;100605.91;5067755;28;20143;-77
2022/04/14 03:24:13;;;;;;;7.43;4.30;;;;;;;12.84;74.47;100612.19;5069789;28;20090;-77
2022/04/14 03:26:40;;;;;;;11.67;4.37;;;;;;;12.70;74.39;100603.63;5065284;28;20460;-77
2022/04/14 03:29:07;;;;;;;5.60;3.63;;;;;;;12.63;74.54;100592.75;5072036;28;20160;-77
2022/04/14 03:31:34;;;;;;;12.70;4.03;;;;;;;12.70;74.92;100612.03;5071248;28;20135;-79
2022/04/14 03:34:01;;;;;;;5.77;4.20;;;;;;;12.63;75.04;100617.97;5071271;28;20135;-79
2022/04/14 03:36:28;;;;;;;12.03;5.40;;;;;;;12.62;74.99;100607.06;5078255;28;20154;-78
2022/04/14 03:38:55;;;;;;;4.60;3.13;;;;;;;12.40;75.22;100593.50;5053365;28;20080;-80
2022/04/14 03:41:21;;;;;;;7.83;4.03;;;;;;;12.08;75.80;100572.44;5069424;28;20048;-80
2022/04/14 03:43:48;;;;;;;4.27;3.30;;;;;;;12.09;75.88;100583.34;5069302;28;20152;-80
2022/04/14 03:46:15;;;;;;;3.73;2.87;;;;;;;11.73;75.48;100523.97;5069193;28;20087;-83
2022/04/14 03:48:43;;;;;;;9.93;5.20;;;;;;;11.84;75.88;100539.59;5072799;28;20048;-84
2022/04/14 03:51:12;;;;;;;9.90;4.80;;;;;;;11.94;75.92;100552.69;5072065;28;20076;-81
2022/04/14 03:53:39;;;;;;;12.40;4.77;;;;;;;12.15;76.10;100594.53;5073335;28;20084;-78
2022/04/14 03:56:06;;;;;;;14.73;5.83;;;;;;;12.17;75.74;100578.25;5070755;28;20480;-82
2022/04/14 03:58:32;;;;;;;12.93;7.13;;;;;;;12.32;75.55;100589.38;5071620;28;20456;-82
2022/04/14 04:00:59;;;;;;;16.20;8.03;;;;;;;12.41;75.51;100601.63;5069225;28;20460;-82
2022/04/14 04:03:27;;;;;;;14.07;7.07;;;;;;;12.42;75.39;100586.47;5072627;28;20056;-83
2022/04/14 04:05:53;;;;;;;13.30;7.73;;;;;;;12.54;75.62;100600.94;5067588;28;20063;-83
2022/04/14 04:08:20;;;;;;;11.97;6.83;;;;;;;12.46;75.19;100581.97;5065748;28;20080;-82
2022/04/14 04:10:47;;;;;;;15.83;8.63;;;;;;;12.50;75.08;100588.66;5070201;28;20227;-81
2022/04/14 04:13:14;;;;;;;15.90;8.53;;;;;;;12.78;74.26;100605.78;5075743;28;20476;-85
2022/04/14 04:15:41;;;;;;;13.87;8.67;;;;;;;12.71;74.52;100586.50;5076703;28;20083;-80
2022/04/14 04:18:08;;;;;;;24.87;9.93;;;;;;;13.02;73.94;100617.91;5076545;28;20092;-80
2022/04/14 04:20:35;;;;;;;22.80;9.87;;;;;;;12.73;73.66;100558.19;5077247;28;20055;-78
2022/04/14 04:23:05;;;;;;;18.47;8.67;;;;;;;12.97;73.65;100586.28;5078407;28;20045;-76
2022/04/14 04:25:33;;;;;;;20.13;8.90;;;;;;;13.20;73.41;100601.47;5072217;28;20535;-84
2022/04/14 04:28:00;;;;;;;15.47;8.23;;;;;;;13.21;73.19;100603.13;5074249;28;20131;-85
2022/04/14 04:30:27;;;;;;;15.87;8.77;;;;;;;13.30;73.15;100612.59;5072470;28;20136;-84
2022/04/14 04:32:54;;;;;;;18.50;8.83;;;;;;;13.17;73.11;100586.06;5075035;28;20106;-86
2022/04/14 04:35:21;;;;;;;18.13;9.27;;;;;;;13.26;73.11;100589.91;5070228;28;20084;-78
2022/04/14 04:37:47;;;;;;;15.63;8.90;;;;;;;13.22;73.05;100579.53;5071591;28;20110;-78
2022/04/14 04:40:16;;;;;;;19.13;9.30;;;;;;;13.24;72.90;100586.56;5076586;28;20058;-77
2022/04/14 04:42:43;;;;;;;20.50;9.30;;;;;;;13.02;73.18;100567.44;5072628;28;20090;-78
2022/04/14 04:45:10;;;;;;;17.40;8.63;;;;;;;13.15;73.70;100601.50;5078524;28;20412;-76
2022/04/14 04:47:36;;;;;;;15.50;7.47;;;;;;;12.97;73.58;100587.09;5074361;28;20087;-77
2022/04/14 04:50:06;;;;;;;17.93;9.50;;;;;;;12.84;73.85;100579.38;5064103;28;20459;-76
2022/04/14 04:52:36;;;;;;;15.70;9.10;;;;;;;12.62;74.04;100562.25;5065867;28;20125;-77
2022/04/14 04:55:03;;;;;;;;;;;;;;;12.55;74.09;100585.00;5068511;28;20054;-75
2022/04/14 04:57:29;;;;;;;21.80;10.80;;;;;;;12.38;73.95;100582.59;5071098;28;19946;-75
2022/04/14 04:59:56;;;;;;;9.40;5.23;;;;;;;12.21;74.00;100584.97;5078067;28;20131;-75
2022/04/14 05:02:23;;;;;;;12.53;7.17;;;;;;;11.98;74.40;100584.53;5073077;28;20055;-74
2022/04/14 05:04:50;;;;;;;16.63;8.23;;;;;;;11.89;74.57;100574.25;5071267;28;20090;-76
2022/04/14 05:07:17;;;;;;;17.03;8.70;;;;;;;11.70;74.60;100555.31;5076113;28;20117;-81
2022/04/14 05:09:44;;;;;;;24.57;11.53;;;;;;;11.70;74.60;100562.88;5075150;28;20161;-73
2022/04/14 05:12:11;;;;;;;7.60;5.27;;;;;;;11.58;74.94;100566.81;5072782;28;20482;-74
2022/04/14 05:14:37;;;;;;;14.50;7.63;;;;;;;11.58;75.01;100588.34;5072525;28;20135;-79
2022/04/14 05:17:05;;;;;;;28.27;9.17;;;;;;;11.33;75.48;100581.75;5071076;28;20068;-73
2022/04/14 05:19:32;;;;;;;14.57;6.00;;;;;;;11.23;75.75;100586.53;5071850;28;20040;-74
2022/04/14 05:22:01;;;;;;;42.17;11.83;;;;;;;11.24;75.81;100591.00;5071509;28;20135;-75
2022/04/14 05:24:32;;;;;;;24.85;9.85;;;;;;;11.14;75.67;100575.09;5073828;28;20485;-73
2022/04/14 05:26:58;;;;;;;37.30;12.57;;;;;;;11.17;75.52;100585.72;5072946;28;20140;-77
2022/04/14 05:29:25;;;;;;;26.07;9.10;;;;;;;11.39;75.83;100613.34;5057917;28;20467;-80
2022/04/14 05:31:53;;;;;;;24.90;9.57;;;;;;;11.11;75.52;100573.72;5071250;28;20140;-80
2022/04/14 05:34:19;;;;;;;37.43;13.07;;;;;;;11.33;75.47;100611.66;5072742;28;20075;-79
2022/04/14 05:36:46;;;;;;;37.70;12.50;;;;;;;11.42;75.79;100628.69;5075686;28;20079;-86
2022/04/14 05:39:13;;;;;;;17.20;8.93;;;;;;;11.38;75.57;100618.09;5068889;28;20040;-75
2022/04/14 05:41:40;;;;;;;30.90;11.03;;;;;;;11.38;75.38;100622.81;5069198;28;20056;-78
2022/04/14 05:44:07;;;;;;;17.03;8.53;;;;;;;11.22;75.61;100591.31;5073170;28;20075;-74
2022/04/14 05:46:34;;;;;;;35.13;11.53;;;;;;;11.29;75.57;100613.38;5066227;28;20147;-75
2022/04/14 05:49:01;;;;;;;22.07;7.77;;;;;;;11.17;75.74;100598.84;5065415;28;20075;-76
2022/04/14 05:51:28;;;;;;;27.27;7.20;;;;;;;11.27;75.78;100629.56;5074583;28;20084;-83
2022/04/14 05:53:55;;;;;;;32.83;8.93;;;;;;;10.97;76.03;100600.56;5073574;28;20083;-84
2022/04/14 05:56:22;;;;;;;34.53;8.53;;;;;;;11.09;75.88;100619.84;5068238;28;20158;-82
2022/04/14 05:58:49;;;;;;;23.00;6.83;;;;;;;11.11;76.17;100634.34;5052624;28;20089;-80
2022/04/14 06:01:16;;;;;;;22.93;5.63;;;;;;;11.00;76.42;100641.91;5068639;28;20083;-80
2022/04/14 06:03:43;;;;;;;49.23;9.73;;;;;;;10.99;76.45;100642.22;5049161;28;21057;-78
2022/04/14 06:06:12;;;;;;;43.37;10.17;;;;;;;10.87;76.56;100623.78;5066047;28;20475;-80
2022/04/14 06:08:39;;;;;;;49.00;11.03;;;;;;;11.00;76.19;100638.28;5065992;28;20044;-79
2022/04/14 06:11:06;;;;;;;62.07;10.60;;;;;;;11.07;75.79;100633.25;5073251;28;20147;-80
2022/04/14 06:13:33;;;;;;;49.27;10.57;;;;;;;11.23;75.53;100650.84;5069695;28;20072;-80
2022/04/14 06:16:01;;;;;;;13.77;5.73;;;;;;;11.13;75.83;100665.66;5063639;28;20057;-81
2022/04/14 06:18:27;;;;;;;44.53;10.60;;;;;;;10.95;75.92;100635.50;5063098;28;20165;-82
2022/04/14 06:20:55;;;;;;;65.03;11.13;;;;;;;11.10;75.76;100649.44;5067283;28;20112;-79
2022/04/14 06:23:22;;;;;;;57.20;12.10;;;;;;;11.09;75.87;100664.56;5069848;28;20076;-80
2022/04/14 06:25:52;;;;;;;56.57;11.30;;;;;;;11.33;75.14;100675.97;5068172;28;20049;-81
2022/04/14 06:28:19;;;;;;;44.45;10.68;;;;;;;11.43;75.11;100675.13;5074840;28;20059;-81
2022/04/14 06:30:46;;;;;;;44.77;10.57;;;;;;;11.37;74.90;100660.31;5066554;28;20582;-80
2022/04/14 06:33:15;;;;;;;62.40;12.00;;;;;;;11.59;74.56;100662.78;5070177;28;20179;-76
2022/04/14 06:35:43;;;;;;;37.67;9.40;;;;;;;11.62;74.84;100662.19;5062533;28;20412;-79
2022/04/14 06:38:10;;;;;;;60.63;10.40;;;;;;;11.51;75.72;100671.72;5057917;28;20044;-76
2022/04/14 06:40:37;;;;;;;47.13;11.53;;;;;;;11.58;75.50;100684.28;5071392;28;20516;-80
2022/04/14 06:43:04;;;;;;;37.83;10.17;;;;;;;11.41;75.62;100658.59;5069314;28;20044;-76
2022/04/14 06:45:32;;;;;;;69.10;13.23;;;;;;;11.34;75.74;100660.88;5045332;28;20040;-76
2022/04/14 06:47:59;;;;;;;51.27;11.27;;;;;;;11.46;75.97;100680.16;5068580;28;20056;-76
2022/04/14 06:50:27;;;;;;;42.50;11.43;;;;;;;11.50;75.94;100676.50;5060621;28;20080;-75
2022/04/14 06:52:54;;;;;;;38.87;11.27;;;;;;;11.37;76.20;100663.94;5062919;28;20070;-74
2022/04/14 06:55:21;;;;;;;37.53;13.03;;;;;;;11.28;76.51;100651.69;5058646;28;20144;-75
2022/04/14 06:57:49;;;;;;;31.00;10.90;;;;;;;11.51;76.44;100686.53;5061537;28;20475;-75
2022/04/14 07:00:17;;;;;;;23.73;7.90;;;;;;;11.32;76.73;100666.75;5075909;28;20051;-75
2022/04/14 07:02:47;;;;;;;9.50;5.23;;;;;;;11.49;76.66;100693.56;5073467;28;20076;-75
2022/04/14 07:05:14;;;;;;;45.70;9.03;;;;;;;11.20;77.04;100665.38;5084133;28;20388;-76
2022/04/14 07:07:42;;;;;;;38.63;10.30;;;;;;;11.26;77.29;100681.84;5070739;28;20124;-75
2022/04/14 07:10:10;;;;;;;42.70;10.27;;;;;;;11.52;76.90;100696.63;5066855;28;20067;-76
2022/04/14 07:12:38;;;;;;;52.37;11.77;;;;;;;11.65;76.70;100699.94;5068985;28;20131;-75
2022/04/14 07:15:07;;;;;;;58.77;12.47;;;;;;;11.69;77.05;100706.63;5057947;28;20427;-75
2022/04/14 07:17:36;;;;;;;25.30;5.37;;;;;;;11.77;77.06;100692.91;5063783;28;20044;-75
2022/04/14 07:20:04;;;;;;;25.93;8.40;;;;;;;11.84;77.51;100675.84;5066335;28;20475;-75
2022/04/14 07:22:41;;;;;;;48.43;11.23;;;;;;;12.20;77.17;100695.25;5061394;28;21360;-74
2022/04/14 07:25:08;;;;;;;34.40;12.33;;;;;;;12.40;76.53;100674.72;5070815;28;20127;-76
2022/04/14 07:27:34;;;;;;;59.43;12.67;;;;;;;12.59;76.80;100653.31;5066391;28;20132;-75
2022/04/14 07:30:01;;;;;;;37.90;10.23;;;;;;;13.53;76.21;100697.88;5066721;28;20128;-76
2022/04/14 07:32:39;;;;;;;26.37;8.30;;;;;;;13.85;75.17;100702.88;5062086;28;20130;-75
2022/04/14 07:35:07;;;;;;;22.27;9.93;;;;;;;13.62;75.13;100689.66;5066160;28;20121;-75
2022/04/14 07:37:36;;;;;;;33.03;10.90;;;;;;;13.43;75.31;100679.19;5062852;28;20582;-74
2022/04/14 07:40:05;;;;;;;32.08;11.55;;;;;;;13.49;74.61;100710.84;5053982;28;20567;-75
2022/04/14 07:42:34;;;;;;;40.70;11.67;;;;;;;13.37;74.34;100708.44;5054997;28;20143;-75
2022/04/14 07:45:01;;;;;;;29.53;12.07;;;;;;;12.95;74.10;100664.19;5057575;28;20048;-75
2022/04/14 07:47:35;;;;;;;30.37;10.97;;;;;;;13.16;74.10;100718.13;5062623;28;20052;-74
2022/04/14 07:50:03;;;;;;;33.70;11.93;;;;;;;13.07;74.33;100708.69;5064879;28;20079;-75
2022/04/14 07:52:30;;;;;;;42.57;13.73;;;;;;;13.14;74.68;100687.59;5067194;28;20128;-73
2022/04/14 07:54:57;;;;;;;39.10;13.27;;;;;;;13.77;74.78;100728.78;5070760;28;20057;-74
2022/04/14 07:57:25;;;;;;;26.37;12.00;;;;;;;13.79;74.58;100706.88;5054039;28;20172;-74
2022/04/14 07:59:52;;;;;;;30.57;13.50;;;;;;;14.13;74.65;100726.38;5067284;28;20457;-75
2022/04/14 08:02:20;;;;;;;28.13;12.53;;;;;;;14.52;74.64;100727.31;5065247;28;20076;-75
2022/04/14 08:04:47;;;;;;;29.87;12.77;;;;;;;15.12;75.20;100741.56;5053825;28;20092;-74
2022/04/14 08:07:13;;;;;;;24.37;12.10;;;;;;;15.15;74.64;100690.31;5049123;28;20080;-75
2022/04/14 08:09:43;;;;;;;29.80;12.13;;;;;;;15.39;74.24;100719.16;5047055;28;20488;-78
2022/04/14 08:12:11;;;;;;;30.00;12.13;;;;;;;15.39;74.25;100712.69;5067655;28;20143;-79
2022/04/14 08:14:38;;;;;;;31.83;12.57;;;;;;;15.66;73.93;100723.19;5065582;28;20155;-79
2022/04/14 08:17:05;;;;;;;26.13;13.65;;;;;;;16.15;74.03;100737.72;5065877;28;20127;-79
2022/04/14 08:19:34;;;;;;;27.73;14.18;;;;;;;16.45;73.18;100733.41;5069096;28;20131;-78
2022/04/14 08:22:01;;;;;;;21.77;11.93;;;;;;;16.77;72.90;100721.97;5070512;28;20087;-79
2022/04/14 08:24:34;;;;;;;22.33;10.57;;;;;;;17.11;71.89;100740.34;5065933;28;20518;-79
2022/04/14 08:27:01;;;;;;;19.10;10.23;;;;;;;17.05;71.42;100747.25;5067583;28;20045;-80
2022/04/14 08:29:29;;;;;;;19.08;9.43;;;;;;;16.95;70.38;100741.88;5024941;28;20045;-79
2022/04/14 08:31:57;;;;;;;23.60;10.40;;;;;;;17.43;69.89;100777.94;5063417;28;20143;-80
2022/04/14 08:34:25;;;;;;;25.10;10.88;;;;;;;17.26;70.14;100685.50;5045538;28;20076;-79
2022/04/14 08:36:52;;;;;;;20.55;10.05;;;;;;;18.12;69.42;100769.03;5069001;28;20080;-79
2022/04/14 08:39:19;;;;;;;18.25;9.73;;;;;;;18.45;69.04;100755.34;5069737;28;20101;-80
2022/04/14 08:41:59;;;;;;;21.02;10.50;;;;;;;18.84;68.17;100750.81;5059501;28;20163;-80
2022/04/14 08:44:30;;;;;;;20.40;10.43;;;;;;;19.26;67.61;100759.63;5049722;28;20495;-80
2022/04/14 08:46:58;;;;;;;21.38;9.98;;;;;;;19.63;66.87;100756.09;5064363;28;20072;-81
2022/04/14 08:49:27;;;;;;;20.52;10.38;;;;;;;19.88;65.92;100756.34;5061566;28;20045;-81
2022/04/14 08:51:56;;;;;;;18.45;10.20;;;;;;;20.23;65.42;100773.22;5065544;28;20072;-81
2022/04/14 08:54:24;;;;;;;17.10;9.02;;;;;;;20.26;65.32;100741.34;5061699;28;20135;-81
2022/04/14 08:56:51;;;;;;;18.30;9.55;;;;;;;20.89;64.52;100792.56;5072937;28;20076;-80
2022/04/14 08:59:19;;;;;;;18.20;9.73;;;;;;;21.13;63.56;100789.91;5072440;28;20048;-80
2022/04/14 09:01:47;;;;;;;17.75;9.50;;;;;;;21.44;63.30;100795.19;5063855;28;20146;-81
2022/04/14 09:04:15;;;;;;;12.20;7.15;;;;;;;21.75;63.45;100799.56;5068534;28;20114;-81
2022/04/14 09:06:42;;;;;;;14.48;8.25;;;;;;;21.93;62.69;100752.69;5060463;28;20127;-81
2022/04/14 09:09:09;;;;;;;14.48;7.60;;;;;;;22.46;62.16;100790.72;5068818;28;20069;-81
2022/04/14 09:11:35;;;;;;;12.52;6.78;;;;;;;22.54;61.39;100802.31;5062180;28;20080;-80
2022/04/14 09:14:02;;;;;;;16.45;7.32;;;;;;;22.18;61.50;100784.03;5066609;28;20040;-80
2022/04/14 09:16:32;;;;;;;12.18;6.63;;;;;;;22.03;61.67;100798.91;5067274;28;20143;-80
2022/04/14 09:19:02;;;;;;;16.65;7.30;;;;;;;21.95;61.70;100780.78;5065510;28;20416;-81
2022/04/14 09:21:29;;;;;;;13.35;6.88;;;;;;;22.22;61.40;100807.72;5069476;28;20270;-80
2022/04/14 09:23:57;;;;;;;13.48;7.25;;;;;;;22.46;60.86;100824.00;5070485;28;20123;-81
2022/04/14 09:26:24;;;;;;;9.38;6.45;;;;;;;22.90;59.82;100827.91;5062884;28;20514;-81
2022/04/14 09:29:03;;;;;;;14.05;7.93;;;;;;;23.17;59.91;100825.53;5064623;28;20060;-81
2022/04/14 09:31:44;;;;;;;15.88;7.68;;;;;;;23.18;59.56;100815.81;5056801;28;20080;-81
2022/04/14 09:34:10;;;;;;;12.45;7.30;;;;;;;23.57;58.73;100827.56;5062587;28;20135;-81
2022/04/14 09:36:38;;;;;;;12.60;7.47;;;;;;;23.77;58.24;100826.53;5062522;28;20484;-81
2022/04/14 09:39:06;;;;;;;11.23;6.90;;;;;;;24.14;58.06;100866.28;5055453;28;20143;-81
2022/04/14 09:41:38;;;;;;;11.38;7.07;;;;;;;24.26;57.95;100868.22;5056139;28;20049;-81
2022/04/14 09:44:14;;;;;;;8.60;5.95;;;;;;;24.30;57.82;100850.00;5056499;28;20610;-83
2022/04/14 09:46:47;;;;;;;13.90;7.55;;;;;;;24.31;57.76;100857.38;5063868;28;20110;-82
2022/04/14 09:49:16;;;;;;;13.60;8.00;;;;;;;24.37;57.61;100855.06;5053166;28;20044;-82
2022/04/14 09:51:48;;;;;;;14.13;8.53;;;;;;;24.52;57.22;100842.88;5066731;28;20484;-81
2022/04/14 09:54:17;;;;;;;12.18;8.10;;;;;;;24.69;57.10;100844.53;5063598;28;20087;-81
2022/04/14 09:56:46;;;;;;;15.47;8.47;;;;;;;24.77;57.16;100852.06;5056053;28;20048;-79
2022/04/14 09:59:18;;;;;;;10.35;7.25;;;;;;;24.82;56.90;100854.66;5056878;28;20056;-81
2022/04/14 10:01:46;;;;;;;15.82;7.70;;;;;;;24.75;56.36;100845.06;5055420;28;20525;-81
2022/04/14 10:04:34;;;;;;;14.25;7.93;;;;;;;24.80;56.80;100845.63;5039022;28;20261;-81
2022/04/14 10:07:16;;;;;;;10.35;7.68;;;;;;;24.75;56.52;100797.38;5038165;28;20179;-81
2022/04/14 10:09:48;;;;;;;11.32;7.50;;;;;;;25.40;56.13;100848.28;5050500;28;20669;-81
2022/04/14 10:12:18;;;;;;;13.68;8.13;;;;;;;25.79;55.79;100856.03;5053670;28;20153;-81
2022/04/14 10:15:03;;;;;;;16.08;8.65;;;;;;;25.66;56.15;100847.59;5056138;28;20179;-81
2022/04/14 10:17:37;;;;;;;14.63;8.57;;;;;;;25.57;55.46;100849.84;5036976;28;20143;-81
2022/04/14 10:20:09;;;;;;;21.25;10.88;;;;;;;25.01;55.67;100836.72;5055057;28;20777;-80
2022/04/14 10:22:38;;;;;;;16.13;10.23;;;;;;;24.66;55.85;100856.69;5057518;28;20662;-81
2022/04/14 10:25:05;;;;;;;16.40;10.52;;;;;;;24.61;56.17;100831.25;5052282;28;20146;-80
2022/04/14 10:27:35;;;;;;;19.15;10.15;;;;;;;24.75;56.25;100843.06;5059635;28;20139;-81
2022/04/14 10:30:03;;;;;;;18.33;10.40;;;;;;;24.77;55.93;100872.06;5037932;28;20521;-81
2022/04/14 10:32:30;;;;;;;25.60;11.60;;;;;;;24.53;56.00;100852.25;5057415;28;20139;-81
2022/04/14 10:34:59;;;;;;;16.95;11.30;;;;;;;24.56;56.07;100880.91;5053987;28;20178;-82
2022/04/14 10:37:32;;;;;;;;;;;;;;;24.21;58.48;100880.75;5056613;28;20082;-81
2022/04/14 10:39:59;;;;;;;29.35;15.13;;;;;;;24.13;57.65;100861.75;5056856;28;20057;-81
2022/04/14 10:42:27;;;;;;;18.33;11.43;;;;;;;24.44;56.82;100861.00;5036456;28;20140;-81
2022/04/14 10:44:55;;;;;;;17.95;9.93;;;;;;;24.94;56.79;100878.59;5057315;28;20048;-82
2022/04/14 10:47:52;;;;;;;20.05;9.98;;;;;;;25.11;56.65;100889.66;5058726;28;20141;-80
2022/04/14 10:50:20;;;;;;;16.38;9.18;;;;;;;24.94;56.32;100859.41;5041912;28;20045;-82
2022/04/14 10:53:20;;;;;;;15.05;8.93;;;;;;;25.36;57.75;100873.09;5068399;28;20048;-81
2022/04/14 10:55:50;;;;;;;16.67;9.07;;;;;;;25.88;56.28;100873.81;5000724;28;20207;-83
2022/04/14 10:58:26;;;;;;;14.30;8.77;;;;;;;26.13;55.75;100868.63;5013666;28;20057;-82
2022/04/14 11:00:54;;;;;;;16.92;9.82;;;;;;;26.91;54.11;100850.00;5025379;28;20164;-81
2022/04/14 11:03:44;;;;;;;21.33;10.57;;;;;;;27.52;53.79;100838.59;5031141;28;20085;-82
2022/04/14 11:06:39;;;;;;;18.25;8.93;;;;;;;27.36;54.13;100841.66;5025565;28;20085;-81
2022/04/14 11:09:08;;;;;;;19.52;10.30;;;;;;;27.22;53.30;100847.22;5025096;28;20547;-81
2022/04/14 11:12:00;;;;;;;16.60;9.60;;;;;;;27.06;54.43;100853.91;5027681;28;20519;-82
2022/04/14 11:14:27;;;;;;;18.88;10.60;;;;;;;26.76;53.46;100818.63;5022459;28;20145;-82
2022/04/14 11:16:54;;;;;;;17.42;9.32;;;;;;;27.06;53.40;100851.03;5027648;28;20107;-82
2022/04/14 11:19:26;;;;;;;12.45;8.20;;;;;;;27.35;53.01;100868.69;5025170;28;20483;-82
2022/04/14 11:22:03;;;;;;;14.90;8.95;;;;;;;27.41;52.27;100855.66;5024288;28;20159;-82
2022/04/14 11:24:47;;;;;;;13.48;8.25;;;;;;;27.21;52.37;100834.88;5043833;28;20054;-82